sensor_id;sensor_type;location;lat;lon;timestamp;temperature;humidity
24250;DHT22;12379;49.820;8.648;2023-04-16T00:01:21;8.80;99.90
24250;DHT22;12379;49.820;8.648;2023-04-16T00:03:46;8.90;99.90
24250;DHT22;12379;49.820;8.648;2023-04-16T00:06:12;8.90;99.90
24250;DHT22;12379;49.820;8.648;2023-04-16T00:08:37;8.90;99.90
24250;DHT22;12379;49.820;8.648;2023-04-16T00:11:04;8.90;99.90
24250;DHT22;12379;49.820;8.648;2023-04-16T00:13:30;8.90;99.90
24250;DHT22;12379;49.820;8.648;2023-04-16T00:15:55;8.90;99.90
24250;DHT22;12379;49.820;8.648;2023-04-16T00:18:21;9.00;99.90
24250;DHT22;12379;49.820;8.648;2023-04-16T00:20:47;8.90;99.90
24250;DHT22;12379;49.820;8.648;2023-04-16T00:23:13;9.00;99.90
24250;DHT22;12379;49.820;8.648;2023-04-16T00:25:38;9.00;99.90
24250;DHT22;12379;49.820;8.648;2023-04-16T00:28:04;8.90;99.90
24250;DHT22;12379;49.820;8.648;2023-04-16T00:30:30;9.00;99.90
24250;DHT22;12379;49.820;8.648;2023-04-16T00:32:55;8.90;99.90
24250;DHT22;12379;49.820;8.648;2023-04-16T00:35:21;8.90;99.90
24250;DHT22;12379;49.820;8.648;2023-04-16T00:37:46;9.00;99.90
24250;DHT22;12379;49.820;8.648;2023-04-16T00:40:12;8.90;99.90
24250;DHT22;12379;49.820;8.648;2023-04-16T00:42:37;8.90;99.90
24250;DHT22;12379;49.820;8.648;2023-04-16T00:45:04;8.90;99.90
24250;DHT22;12379;49.820;8.648;2023-04-16T00:47:30;8.90;99.90
24250;DHT22;12379;49.820;8.648;2023-04-16T00:49:56;8.80;99.90
24250;DHT22;12379;49.820;8.648;2023-04-16T00:52:21;8.90;99.90
24250;DHT22;12379;49.820;8.648;2023-04-16T00:54:47;8.90;99.90
24250;DHT22;12379;49.820;8.648;2023-04-16T00:57:13;8.90;99.90
24250;DHT22;12379;49.820;8.648;2023-04-16T00:59:40;8.90;99.90
24250;DHT22;12379;49.820;8.648;2023-04-16T01:02:06;8.90;99.90
24250;DHT22;12379;49.820;8.648;2023-04-16T01:04:31;8.90;99.90
24250;DHT22;12379;49.820;8.648;2023-04-16T01:06:58;8.90;99.90
24250;DHT22;12379;49.820;8.648;2023-04-16T01:09:24;8.90;99.90
24250;DHT22;12379;49.820;8.648;2023-04-16T01:11:49;8.90;99.90
24250;DHT22;12379;49.820;8.648;2023-04-16T01:14:15;8.90;99.90
24250;DHT22;12379;49.820;8.648;2023-04-16T01:16:41;8.80;99.90
24250;DHT22;12379;49.820;8.648;2023-04-16T01:19:06;8.90;99.90
24250;DHT22;12379;49.820;8.648;2023-04-16T01:21:32;8.90;99.90
24250;DHT22;12379;49.820;8.648;2023-04-16T01:24:01;8.90;99.90
24250;DHT22;12379;49.820;8.648;2023-04-16T01:26:28;9.00;99.90
24250;DHT22;12379;49.820;8.648;2023-04-16T01:28:53;8.90;99.90
24250;DHT22;12379;49.820;8.648;2023-04-16T01:31:19;8.90;99.90
24250;DHT22;12379;49.820;8.648;2023-04-16T01:33:44;8.90;99.90
24250;DHT22;12379;49.820;8.648;2023-04-16T01:36:10;8.90;99.90
24250;DHT22;12379;49.820;8.648;2023-04-16T01:38:36;8.90;99.90
24250;DHT22;12379;49.820;8.648;2023-04-16T01:41:01;8.90;99.90
24250;DHT22;12379;49.820;8.648;2023-04-16T01:43:27;8.90;99.90
24250;DHT22;12379;49.820;8.648;2023-04-16T01:46:12;8.90;99.90
24250;DHT22;12379;49.820;8.648;2023-04-16T01:48:38;8.90;99.90
24250;DHT22;12379;49.820;8.648;2023-04-16T01:51:04;8.90;99.90
24250;DHT22;12379;49.820;8.648;2023-04-16T01:53:29;8.90;99.90
24250;DHT22;12379;49.820;8.648;2023-04-16T01:55:55;8.90;99.90
24250;DHT22;12379;49.820;8.648;2023-04-16T01:58:20;8.90;99.90
24250;DHT22;12379;49.820;8.648;2023-04-16T02:00:46;8.90;99.90
24250;DHT22;12379;49.820;8.648;2023-04-16T02:03:11;9.00;99.90
24250;DHT22;12379;49.820;8.648;2023-04-16T02:05:37;9.00;99.90
24250;DHT22;12379;49.820;8.648;2023-04-16T02:08:03;9.00;99.90
24250;DHT22;12379;49.820;8.648;2023-04-16T02:10:28;8.90;99.90
24250;DHT22;12379;49.820;8.648;2023-04-16T02:12:54;9.00;99.90
24250;DHT22;12379;49.820;8.648;2023-04-16T02:15:19;8.90;99.90
24250;DHT22;12379;49.820;8.648;2023-04-16T02:17:45;9.00;99.90
24250;DHT22;12379;49.820;8.648;2023-04-16T02:20:12;9.00;99.90
24250;DHT22;12379;49.820;8.648;2023-04-16T02:22:37;8.90;99.90
24250;DHT22;12379;49.820;8.648;2023-04-16T02:25:03;8.90;99.90
24250;DHT22;12379;49.820;8.648;2023-04-16T02:27:29;9.00;99.90
24250;DHT22;12379;49.820;8.648;2023-04-16T02:29:54;9.00;99.90
24250;DHT22;12379;49.820;8.648;2023-04-16T02:32:20;8.90;99.90
24250;DHT22;12379;49.820;8.648;2023-04-16T02:34:46;9.00;99.90
24250;DHT22;12379;49.820;8.648;2023-04-16T02:37:12;9.00;99.90
24250;DHT22;12379;49.820;8.648;2023-04-16T02:39:39;9.00;99.90
24250;DHT22;12379;49.820;8.648;2023-04-16T02:42:05;9.00;99.90
24250;DHT22;12379;49.820;8.648;2023-04-16T02:44:30;8.90;99.90
24250;DHT22;12379;49.820;8.648;2023-04-16T02:46:56;8.90;99.90
24250;DHT22;12379;49.820;8.648;2023-04-16T02:49:21;8.90;99.90
24250;DHT22;12379;49.820;8.648;2023-04-16T02:51:47;9.00;99.90
24250;DHT22;12379;49.820;8.648;2023-04-16T02:54:12;9.00;99.90
24250;DHT22;12379;49.820;8.648;2023-04-16T02:56:38;9.00;99.90
24250;DHT22;12379;49.820;8.648;2023-04-16T02:59:03;9.00;99.90
24250;DHT22;12379;49.820;8.648;2023-04-16T03:01:29;9.00;99.90
24250;DHT22;12379;49.820;8.648;2023-04-16T03:03:55;9.00;99.90
24250;DHT22;12379;49.820;8.648;2023-04-16T03:06:20;9.00;99.90
24250;DHT22;12379;49.820;8.648;2023-04-16T03:08:46;9.00;99.90
24250;DHT22;12379;49.820;8.648;2023-04-16T03:11:11;8.90;99.90
24250;DHT22;12379;49.820;8.648;2023-04-16T03:13:37;8.90;99.90
24250;DHT22;12379;49.820;8.648;2023-04-16T03:16:02;8.90;99.90
24250;DHT22;12379;49.820;8.648;2023-04-16T03:18:28;9.00;99.90
24250;DHT22;12379;49.820;8.648;2023-04-16T03:20:54;9.00;99.90
24250;DHT22;12379;49.820;8.648;2023-04-16T03:23:19;9.10;99.90
24250;DHT22;12379;49.820;8.648;2023-04-16T03:25:45;9.10;99.90
24250;DHT22;12379;49.820;8.648;2023-04-16T03:28:12;9.10;99.90
24250;DHT22;12379;49.820;8.648;2023-04-16T03:30:38;9.20;99.90
24250;DHT22;12379;49.820;8.648;2023-04-16T03:33:03;9.20;99.90
24250;DHT22;12379;49.820;8.648;2023-04-16T03:35:29;9.20;99.90
24250;DHT22;12379;49.820;8.648;2023-04-16T03:37:54;9.20;99.90
24250;DHT22;12379;49.820;8.648;2023-04-16T03:40:20;9.20;99.90
24250;DHT22;12379;49.820;8.648;2023-04-16T03:42:45;9.20;99.90
24250;DHT22;12379;49.820;8.648;2023-04-16T03:45:11;9.30;99.90
24250;DHT22;12379;49.820;8.648;2023-04-16T03:47:37;9.20;99.90
24250;DHT22;12379;49.820;8.648;2023-04-16T03:50:02;9.10;99.90
24250;DHT22;12379;49.820;8.648;2023-04-16T03:52:28;9.10;99.90
24250;DHT22;12379;49.820;8.648;2023-04-16T03:54:53;9.10;99.90
24250;DHT22;12379;49.820;8.648;2023-04-16T03:57:19;9.10;99.90
24250;DHT22;12379;49.820;8.648;2023-04-16T03:59:44;9.00;99.90
24250;DHT22;12379;49.820;8.648;2023-04-16T04:02:10;9.00;99.90
24250;DHT22;12379;49.820;8.648;2023-04-16T04:04:35;9.00;99.90
24250;DHT22;12379;49.820;8.648;2023-04-16T04:07:01;9.00;99.90
24250;DHT22;12379;49.820;8.648;2023-04-16T04:09:26;9.00;99.90
24250;DHT22;12379;49.820;8.648;2023-04-16T04:11:52;9.10;99.90
24250;DHT22;12379;49.820;8.648;2023-04-16T04:14:17;9.10;99.90
24250;DHT22;12379;49.820;8.648;2023-04-16T04:16:43;9.00;99.90
24250;DHT22;12379;49.820;8.648;2023-04-16T04:19:09;9.10;99.90
24250;DHT22;12379;49.820;8.648;2023-04-16T04:21:34;9.00;99.90
24250;DHT22;12379;49.820;8.648;2023-04-16T04:24:00;9.00;99.90
24250;DHT22;12379;49.820;8.648;2023-04-16T04:26:25;9.00;99.90
24250;DHT22;12379;49.820;8.648;2023-04-16T04:28:51;9.00;99.90
24250;DHT22;12379;49.820;8.648;2023-04-16T04:31:16;9.00;99.90
24250;DHT22;12379;49.820;8.648;2023-04-16T04:33:42;9.00;99.90
24250;DHT22;12379;49.820;8.648;2023-04-16T04:36:07;9.10;99.90
24250;DHT22;12379;49.820;8.648;2023-04-16T04:38:33;9.10;99.90
24250;DHT22;12379;49.820;8.648;2023-04-16T04:40:59;9.20;99.90
24250;DHT22;12379;49.820;8.648;2023-04-16T04:43:24;9.20;99.90
24250;DHT22;12379;49.820;8.648;2023-04-16T04:45:50;9.20;99.90
24250;DHT22;12379;49.820;8.648;2023-04-16T04:48:16;9.20;99.90
24250;DHT22;12379;49.820;8.648;2023-04-16T04:50:43;9.10;99.90
24250;DHT22;12379;49.820;8.648;2023-04-16T04:53:09;9.00;99.90
24250;DHT22;12379;49.820;8.648;2023-04-16T04:55:36;9.00;99.90
24250;DHT22;12379;49.820;8.648;2023-04-16T04:58:02;9.00;99.90
24250;DHT22;12379;49.820;8.648;2023-04-16T05:00:29;8.90;99.90
24250;DHT22;12379;49.820;8.648;2023-04-16T05:02:54;9.00;99.90
24250;DHT22;12379;49.820;8.648;2023-04-16T05:05:20;8.90;99.90
24250;DHT22;12379;49.820;8.648;2023-04-16T05:07:45;8.90;99.90
24250;DHT22;12379;49.820;8.648;2023-04-16T05:10:11;8.90;99.90
24250;DHT22;12379;49.820;8.648;2023-04-16T05:12:36;8.90;99.90
24250;DHT22;12379;49.820;8.648;2023-04-16T05:15:02;8.90;99.90
24250;DHT22;12379;49.820;8.648;2023-04-16T05:17:28;8.90;99.90
24250;DHT22;12379;49.820;8.648;2023-04-16T05:19:53;8.90;99.90
24250;DHT22;12379;49.820;8.648;2023-04-16T05:22:19;9.00;99.90
24250;DHT22;12379;49.820;8.648;2023-04-16T05:24:45;9.00;99.90
24250;DHT22;12379;49.820;8.648;2023-04-16T05:27:10;9.00;99.90
24250;DHT22;12379;49.820;8.648;2023-04-16T05:29:36;9.10;99.90
24250;DHT22;12379;49.820;8.648;2023-04-16T05:32:01;9.10;99.90
24250;DHT22;12379;49.820;8.648;2023-04-16T05:34:27;9.10;99.90
24250;DHT22;12379;49.820;8.648;2023-04-16T05:36:52;9.20;99.90
24250;DHT22;12379;49.820;8.648;2023-04-16T05:39:18;9.10;99.90
24250;DHT22;12379;49.820;8.648;2023-04-16T05:41:44;9.10;99.90
24250;DHT22;12379;49.820;8.648;2023-04-16T05:44:09;9.10;99.90
24250;DHT22;12379;49.820;8.648;2023-04-16T05:46:35;9.00;99.90
24250;DHT22;12379;49.820;8.648;2023-04-16T05:49:00;9.10;99.90
24250;DHT22;12379;49.820;8.648;2023-04-16T05:51:26;9.10;99.90
24250;DHT22;12379;49.820;8.648;2023-04-16T05:53:51;9.10;99.90
24250;DHT22;12379;49.820;8.648;2023-04-16T05:56:17;9.10;99.90
24250;DHT22;12379;49.820;8.648;2023-04-16T05:58:43;9.20;99.90
24250;DHT22;12379;49.820;8.648;2023-04-16T06:01:10;9.20;99.90
24250;DHT22;12379;49.820;8.648;2023-04-16T06:03:35;9.20;99.90
24250;DHT22;12379;49.820;8.648;2023-04-16T06:06:01;9.10;99.90
24250;DHT22;12379;49.820;8.648;2023-04-16T06:08:26;9.10;99.90
24250;DHT22;12379;49.820;8.648;2023-04-16T06:10:52;9.10;99.90
24250;DHT22;12379;49.820;8.648;2023-04-16T06:13:17;9.10;99.90
24250;DHT22;12379;49.820;8.648;2023-04-16T06:15:43;9.20;99.90
24250;DHT22;12379;49.820;8.648;2023-04-16T06:18:09;9.10;99.90
24250;DHT22;12379;49.820;8.648;2023-04-16T06:20:34;9.10;99.90
24250;DHT22;12379;49.820;8.648;2023-04-16T06:23:00;9.10;99.90
24250;DHT22;12379;49.820;8.648;2023-04-16T06:25:26;9.10;99.90
24250;DHT22;12379;49.820;8.648;2023-04-16T06:27:51;9.10;99.90
24250;DHT22;12379;49.820;8.648;2023-04-16T06:30:17;9.10;99.90
24250;DHT22;12379;49.820;8.648;2023-04-16T06:32:44;9.20;99.90
24250;DHT22;12379;49.820;8.648;2023-04-16T06:35:10;9.20;99.90
24250;DHT22;12379;49.820;8.648;2023-04-16T06:37:36;9.20;99.90
24250;DHT22;12379;49.820;8.648;2023-04-16T06:40:02;9.20;99.90
24250;DHT22;12379;49.820;8.648;2023-04-16T06:42:27;9.20;99.90
24250;DHT22;12379;49.820;8.648;2023-04-16T06:44:53;9.20;99.90
24250;DHT22;12379;49.820;8.648;2023-04-16T06:47:18;9.30;99.90
24250;DHT22;12379;49.820;8.648;2023-04-16T06:49:44;9.30;99.90
24250;DHT22;12379;49.820;8.648;2023-04-16T06:52:10;9.30;99.90
24250;DHT22;12379;49.820;8.648;2023-04-16T06:54:36;9.30;99.90
24250;DHT22;12379;49.820;8.648;2023-04-16T06:57:01;9.30;99.90
24250;DHT22;12379;49.820;8.648;2023-04-16T06:59:27;9.30;99.90
24250;DHT22;12379;49.820;8.648;2023-04-16T07:01:52;9.40;99.90
24250;DHT22;12379;49.820;8.648;2023-04-16T07:04:18;9.40;99.90
24250;DHT22;12379;49.820;8.648;2023-04-16T07:06:43;9.40;99.90
24250;DHT22;12379;49.820;8.648;2023-04-16T07:09:09;9.30;99.90
24250;DHT22;12379;49.820;8.648;2023-04-16T07:11:34;9.30;99.90
24250;DHT22;12379;49.820;8.648;2023-04-16T07:14:00;9.30;99.90
24250;DHT22;12379;49.820;8.648;2023-04-16T07:16:26;9.40;99.90
24250;DHT22;12379;49.820;8.648;2023-04-16T07:18:51;9.30;99.90
24250;DHT22;12379;49.820;8.648;2023-04-16T07:21:17;9.30;99.90
24250;DHT22;12379;49.820;8.648;2023-04-16T07:23:42;9.40;99.90
24250;DHT22;12379;49.820;8.648;2023-04-16T07:26:08;9.40;99.90
24250;DHT22;12379;49.820;8.648;2023-04-16T07:28:33;9.50;99.90
24250;DHT22;12379;49.820;8.648;2023-04-16T07:30:59;9.60;99.90
24250;DHT22;12379;49.820;8.648;2023-04-16T07:33:25;9.50;99.90
24250;DHT22;12379;49.820;8.648;2023-04-16T07:35:50;9.30;99.90
24250;DHT22;12379;49.820;8.648;2023-04-16T07:38:17;9.30;99.90
24250;DHT22;12379;49.820;8.648;2023-04-16T07:40:43;9.30;99.90
24250;DHT22;12379;49.820;8.648;2023-04-16T07:43:09;9.20;99.90
24250;DHT22;12379;49.820;8.648;2023-04-16T07:45:34;9.20;99.90
24250;DHT22;12379;49.820;8.648;2023-04-16T07:48:00;9.10;99.90
24250;DHT22;12379;49.820;8.648;2023-04-16T07:50:26;9.00;99.90
24250;DHT22;12379;49.820;8.648;2023-04-16T07:52:51;8.90;99.90
24250;DHT22;12379;49.820;8.648;2023-04-16T07:55:17;9.00;99.90
24250;DHT22;12379;49.820;8.648;2023-04-16T07:57:43;8.90;99.90
24250;DHT22;12379;49.820;8.648;2023-04-16T08:00:09;8.90;99.90
24250;DHT22;12379;49.820;8.648;2023-04-16T08:02:35;9.00;99.90
24250;DHT22;12379;49.820;8.648;2023-04-16T08:05:01;9.00;99.90
24250;DHT22;12379;49.820;8.648;2023-04-16T08:07:26;9.00;99.90
24250;DHT22;12379;49.820;8.648;2023-04-16T08:09:52;9.00;99.90
24250;DHT22;12379;49.820;8.648;2023-04-16T08:12:19;9.20;99.90
24250;DHT22;12379;49.820;8.648;2023-04-16T08:14:45;9.00;99.90
24250;DHT22;12379;49.820;8.648;2023-04-16T08:17:12;9.10;99.90
24250;DHT22;12379;49.820;8.648;2023-04-16T08:19:37;9.00;99.90
24250;DHT22;12379;49.820;8.648;2023-04-16T08:22:03;9.00;99.90
24250;DHT22;12379;49.820;8.648;2023-04-16T08:24:29;9.00;99.90
24250;DHT22;12379;49.820;8.648;2023-04-16T08:26:54;9.10;99.90
24250;DHT22;12379;49.820;8.648;2023-04-16T08:29:20;9.00;99.90
24250;DHT22;12379;49.820;8.648;2023-04-16T08:31:46;9.10;99.90
24250;DHT22;12379;49.820;8.648;2023-04-16T08:34:11;9.00;99.90
24250;DHT22;12379;49.820;8.648;2023-04-16T08:36:37;9.00;99.90
24250;DHT22;12379;49.820;8.648;2023-04-16T08:39:04;8.90;99.90
24250;DHT22;12379;49.820;8.648;2023-04-16T08:41:31;9.00;99.90
24250;DHT22;12379;49.820;8.648;2023-04-16T08:44:03;8.90;99.90
24250;DHT22;12379;49.820;8.648;2023-04-16T08:46:35;8.90;99.90
24250;DHT22;12379;49.820;8.648;2023-04-16T08:49:01;9.00;99.90
24250;DHT22;12379;49.820;8.648;2023-04-16T08:51:34;9.10;99.90
24250;DHT22;12379;49.820;8.648;2023-04-16T08:54:11;9.00;99.90
24250;DHT22;12379;49.820;8.648;2023-04-16T08:56:40;9.10;99.90
24250;DHT22;12379;49.820;8.648;2023-04-16T08:59:08;9.10;99.90
24250;DHT22;12379;49.820;8.648;2023-04-16T09:01:34;9.20;99.90
24250;DHT22;12379;49.820;8.648;2023-04-16T09:04:01;9.20;99.90
24250;DHT22;12379;49.820;8.648;2023-04-16T09:06:28;9.20;99.90
24250;DHT22;12379;49.820;8.648;2023-04-16T09:08:54;9.20;99.90
24250;DHT22;12379;49.820;8.648;2023-04-16T09:11:22;9.20;99.90
24250;DHT22;12379;49.820;8.648;2023-04-16T09:13:48;9.30;99.90
24250;DHT22;12379;49.820;8.648;2023-04-16T09:16:14;9.40;99.90
24250;DHT22;12379;49.820;8.648;2023-04-16T09:18:40;9.50;99.90
24250;DHT22;12379;49.820;8.648;2023-04-16T09:21:08;9.50;99.90
24250;DHT22;12379;49.820;8.648;2023-04-16T09:23:36;9.60;99.90
24250;DHT22;12379;49.820;8.648;2023-04-16T09:26:03;9.60;99.90
24250;DHT22;12379;49.820;8.648;2023-04-16T09:28:46;9.60;99.90
24250;DHT22;12379;49.820;8.648;2023-04-16T09:31:13;9.60;99.90
24250;DHT22;12379;49.820;8.648;2023-04-16T09:33:39;9.60;99.90
24250;DHT22;12379;49.820;8.648;2023-04-16T09:36:05;9.60;99.90
24250;DHT22;12379;49.820;8.648;2023-04-16T09:38:52;9.60;99.90
24250;DHT22;12379;49.820;8.648;2023-04-16T09:41:29;9.80;99.90
24250;DHT22;12379;49.820;8.648;2023-04-16T09:43:59;9.90;99.90
24250;DHT22;12379;49.820;8.648;2023-04-16T09:46:41;9.80;99.90
24250;DHT22;12379;49.820;8.648;2023-04-16T09:49:16;9.90;99.90
24250;DHT22;12379;49.820;8.648;2023-04-16T09:51:44;10.00;99.90
24250;DHT22;12379;49.820;8.648;2023-04-16T09:54:10;10.00;99.90
24250;DHT22;12379;49.820;8.648;2023-04-16T09:56:45;10.00;99.90
24250;DHT22;12379;49.820;8.648;2023-04-16T09:59:17;10.00;99.90
24250;DHT22;12379;49.820;8.648;2023-04-16T10:01:43;10.00;99.90
24250;DHT22;12379;49.820;8.648;2023-04-16T10:04:11;10.00;99.90
24250;DHT22;12379;49.820;8.648;2023-04-16T10:06:37;10.10;99.90
24250;DHT22;12379;49.820;8.648;2023-04-16T10:09:06;10.10;99.90
24250;DHT22;12379;49.820;8.648;2023-04-16T10:11:32;10.10;99.90
24250;DHT22;12379;49.820;8.648;2023-04-16T10:13:58;10.10;99.90
24250;DHT22;12379;49.820;8.648;2023-04-16T10:16:24;10.20;99.90
24250;DHT22;12379;49.820;8.648;2023-04-16T10:18:50;10.10;99.90
24250;DHT22;12379;49.820;8.648;2023-04-16T10:21:18;10.20;99.90
24250;DHT22;12379;49.820;8.648;2023-04-16T10:23:43;10.20;99.90
24250;DHT22;12379;49.820;8.648;2023-04-16T10:26:09;10.20;99.90
24250;DHT22;12379;49.820;8.648;2023-04-16T10:28:35;10.20;99.90
24250;DHT22;12379;49.820;8.648;2023-04-16T10:31:03;10.20;99.90
24250;DHT22;12379;49.820;8.648;2023-04-16T10:33:32;10.20;99.90
24250;DHT22;12379;49.820;8.648;2023-04-16T10:36:11;10.20;99.90
24250;DHT22;12379;49.820;8.648;2023-04-16T10:41:06;10.30;99.90
24250;DHT22;12379;49.820;8.648;2023-04-16T10:43:44;10.30;99.90
24250;DHT22;12379;49.820;8.648;2023-04-16T10:46:20;10.30;99.90
24250;DHT22;12379;49.820;8.648;2023-04-16T10:48:48;10.40;99.90
24250;DHT22;12379;49.820;8.648;2023-04-16T10:51:33;10.50;99.90
24250;DHT22;12379;49.820;8.648;2023-04-16T10:56:50;10.40;99.90
24250;DHT22;12379;49.820;8.648;2023-04-16T10:59:20;10.40;99.90
24250;DHT22;12379;49.820;8.648;2023-04-16T11:01:49;10.40;99.90
24250;DHT22;12379;49.820;8.648;2023-04-16T11:12:12;10.60;99.90
24250;DHT22;12379;49.820;8.648;2023-04-16T11:14:39;10.60;99.90
24250;DHT22;12379;49.820;8.648;2023-04-16T11:17:05;10.80;99.90
24250;DHT22;12379;49.820;8.648;2023-04-16T11:19:31;10.70;99.90
24250;DHT22;12379;49.820;8.648;2023-04-16T11:21:58;10.80;99.90
24250;DHT22;12379;49.820;8.648;2023-04-16T11:24:27;10.60;99.90
24250;DHT22;12379;49.820;8.648;2023-04-16T11:26:53;10.60;99.90
24250;DHT22;12379;49.820;8.648;2023-04-16T11:29:18;10.50;99.90
24250;DHT22;12379;49.820;8.648;2023-04-16T11:31:51;10.60;99.90
24250;DHT22;12379;49.820;8.648;2023-04-16T11:34:17;10.60;99.90
24250;DHT22;12379;49.820;8.648;2023-04-16T11:36:44;10.70;99.90
24250;DHT22;12379;49.820;8.648;2023-04-16T11:39:10;10.80;99.90
24250;DHT22;12379;49.820;8.648;2023-04-16T11:41:45;10.80;99.90
24250;DHT22;12379;49.820;8.648;2023-04-16T11:44:22;10.90;99.90
24250;DHT22;12379;49.820;8.648;2023-04-16T11:46:49;10.90;99.90
24250;DHT22;12379;49.820;8.648;2023-04-16T11:49:15;10.80;99.90
24250;DHT22;12379;49.820;8.648;2023-04-16T11:51:43;10.70;99.90
24250;DHT22;12379;49.820;8.648;2023-04-16T11:54:20;10.70;99.90
24250;DHT22;12379;49.820;8.648;2023-04-16T11:56:47;10.80;99.90
24250;DHT22;12379;49.820;8.648;2023-04-16T11:59:18;10.80;99.90
24250;DHT22;12379;49.820;8.648;2023-04-16T12:01:46;10.70;99.90
24250;DHT22;12379;49.820;8.648;2023-04-16T12:04:14;10.80;99.90
24250;DHT22;12379;49.820;8.648;2023-04-16T12:09:25;10.80;99.90
24250;DHT22;12379;49.820;8.648;2023-04-16T12:11:54;10.80;99.90
24250;DHT22;12379;49.820;8.648;2023-04-16T12:14:19;10.80;99.90
24250;DHT22;12379;49.820;8.648;2023-04-16T12:16:46;10.90;99.90
24250;DHT22;12379;49.820;8.648;2023-04-16T12:19:12;11.10;99.90
24250;DHT22;12379;49.820;8.648;2023-04-16T12:21:38;11.20;99.90
24250;DHT22;12379;49.820;8.648;2023-04-16T12:24:05;11.40;99.90
24250;DHT22;12379;49.820;8.648;2023-04-16T12:31:41;11.60;99.90
24250;DHT22;12379;49.820;8.648;2023-04-16T12:34:07;11.50;99.90
24250;DHT22;12379;49.820;8.648;2023-04-16T12:36:34;11.40;99.90
24250;DHT22;12379;49.820;8.648;2023-04-16T12:39:00;11.40;99.90
24250;DHT22;12379;49.820;8.648;2023-04-16T12:41:26;11.50;99.90
24250;DHT22;12379;49.820;8.648;2023-04-16T12:43:51;11.30;99.90
24250;DHT22;12379;49.820;8.648;2023-04-16T12:46:17;11.30;99.90
24250;DHT22;12379;49.820;8.648;2023-04-16T12:48:42;11.20;99.90
24250;DHT22;12379;49.820;8.648;2023-04-16T12:51:08;11.30;99.90
24250;DHT22;12379;49.820;8.648;2023-04-16T12:53:34;11.30;99.90
24250;DHT22;12379;49.820;8.648;2023-04-16T12:55:59;11.20;99.90
24250;DHT22;12379;49.820;8.648;2023-04-16T12:58:25;11.20;99.90
24250;DHT22;12379;49.820;8.648;2023-04-16T13:00:51;11.10;99.90
24250;DHT22;12379;49.820;8.648;2023-04-16T13:03:16;11.10;99.90
24250;DHT22;12379;49.820;8.648;2023-04-16T13:05:42;11.20;99.90
24250;DHT22;12379;49.820;8.648;2023-04-16T13:08:07;11.30;99.90
24250;DHT22;12379;49.820;8.648;2023-04-16T13:10:34;11.40;99.90
24250;DHT22;12379;49.820;8.648;2023-04-16T13:13:00;11.40;99.90
24250;DHT22;12379;49.820;8.648;2023-04-16T13:15:28;11.40;99.90
24250;DHT22;12379;49.820;8.648;2023-04-16T13:17:53;11.30;99.90
24250;DHT22;12379;49.820;8.648;2023-04-16T13:20:19;11.30;99.90
24250;DHT22;12379;49.820;8.648;2023-04-16T13:22:44;11.40;99.90
24250;DHT22;12379;49.820;8.648;2023-04-16T13:25:10;11.50;99.90
24250;DHT22;12379;49.820;8.648;2023-04-16T13:27:35;11.40;99.90
24250;DHT22;12379;49.820;8.648;2023-04-16T13:30:01;11.40;99.90
24250;DHT22;12379;49.820;8.648;2023-04-16T13:32:26;11.40;99.90
24250;DHT22;12379;49.820;8.648;2023-04-16T13:34:53;11.50;99.90
24250;DHT22;12379;49.820;8.648;2023-04-16T13:37:18;11.70;99.90
24250;DHT22;12379;49.820;8.648;2023-04-16T13:39:44;11.70;99.90
24250;DHT22;12379;49.820;8.648;2023-04-16T13:42:09;11.90;99.90
24250;DHT22;12379;49.820;8.648;2023-04-16T13:44:35;12.00;99.90
24250;DHT22;12379;49.820;8.648;2023-04-16T13:47:00;12.10;99.90
24250;DHT22;12379;49.820;8.648;2023-04-16T13:49:26;12.10;99.90
24250;DHT22;12379;49.820;8.648;2023-04-16T13:51:51;12.20;99.90
24250;DHT22;12379;49.820;8.648;2023-04-16T13:54:17;12.50;99.90
24250;DHT22;12379;49.820;8.648;2023-04-16T13:56:42;12.50;99.90
24250;DHT22;12379;49.820;8.648;2023-04-16T13:59:08;12.50;99.90
24250;DHT22;12379;49.820;8.648;2023-04-16T14:01:33;12.50;99.90
24250;DHT22;12379;49.820;8.648;2023-04-16T14:04:00;12.60;99.90
24250;DHT22;12379;49.820;8.648;2023-04-16T14:06:30;12.70;99.90
24250;DHT22;12379;49.820;8.648;2023-04-16T14:08:56;12.70;99.90
24250;DHT22;12379;49.820;8.648;2023-04-16T14:11:22;12.60;99.90
24250;DHT22;12379;49.820;8.648;2023-04-16T14:13:48;12.60;99.90
24250;DHT22;12379;49.820;8.648;2023-04-16T14:16:13;12.60;99.90
24250;DHT22;12379;49.820;8.648;2023-04-16T14:18:39;12.60;99.90
24250;DHT22;12379;49.820;8.648;2023-04-16T14:21:07;12.40;99.90
24250;DHT22;12379;49.820;8.648;2023-04-16T14:23:32;12.40;99.90
24250;DHT22;12379;49.820;8.648;2023-04-16T14:25:58;12.20;99.90
24250;DHT22;12379;49.820;8.648;2023-04-16T14:28:23;12.10;99.90
24250;DHT22;12379;49.820;8.648;2023-04-16T14:30:49;12.00;99.90
24250;DHT22;12379;49.820;8.648;2023-04-16T14:33:15;12.00;99.90
24250;DHT22;12379;49.820;8.648;2023-04-16T14:35:40;12.10;99.90
24250;DHT22;12379;49.820;8.648;2023-04-16T14:38:06;12.10;99.90
24250;DHT22;12379;49.820;8.648;2023-04-16T14:40:32;12.00;99.90
24250;DHT22;12379;49.820;8.648;2023-04-16T14:42:58;12.00;99.90
24250;DHT22;12379;49.820;8.648;2023-04-16T14:45:24;11.90;99.90
24250;DHT22;12379;49.820;8.648;2023-04-16T14:47:54;11.90;99.90
24250;DHT22;12379;49.820;8.648;2023-04-16T14:50:19;11.90;99.90
24250;DHT22;12379;49.820;8.648;2023-04-16T14:52:45;12.00;99.90
24250;DHT22;12379;49.820;8.648;2023-04-16T14:55:10;12.00;99.90
24250;DHT22;12379;49.820;8.648;2023-04-16T14:57:36;12.00;99.90
24250;DHT22;12379;49.820;8.648;2023-04-16T15:00:03;12.00;99.90
24250;DHT22;12379;49.820;8.648;2023-04-16T15:02:33;12.10;99.90
24250;DHT22;12379;49.820;8.648;2023-04-16T15:04:59;12.00;99.90
24250;DHT22;12379;49.820;8.648;2023-04-16T15:07:25;12.10;99.90
24250;DHT22;12379;49.820;8.648;2023-04-16T15:09:51;12.10;99.90
24250;DHT22;12379;49.820;8.648;2023-04-16T15:12:16;12.30;99.90
24250;DHT22;12379;49.820;8.648;2023-04-16T15:14:42;12.20;99.90
24250;DHT22;12379;49.820;8.648;2023-04-16T15:17:08;12.30;99.90
24250;DHT22;12379;49.820;8.648;2023-04-16T15:19:33;12.20;99.90
24250;DHT22;12379;49.820;8.648;2023-04-16T15:21:59;12.30;99.90
24250;DHT22;12379;49.820;8.648;2023-04-16T15:24:25;12.10;99.90
24250;DHT22;12379;49.820;8.648;2023-04-16T15:26:50;12.00;99.90
24250;DHT22;12379;49.820;8.648;2023-04-16T15:29:16;12.00;99.90
24250;DHT22;12379;49.820;8.648;2023-04-16T15:31:41;12.10;99.90
24250;DHT22;12379;49.820;8.648;2023-04-16T15:34:07;12.00;99.90
24250;DHT22;12379;49.820;8.648;2023-04-16T15:36:33;11.90;99.90
24250;DHT22;12379;49.820;8.648;2023-04-16T15:38:58;11.90;99.90
24250;DHT22;12379;49.820;8.648;2023-04-16T15:41:24;11.80;99.90
24250;DHT22;12379;49.820;8.648;2023-04-16T15:43:49;11.80;99.90
24250;DHT22;12379;49.820;8.648;2023-04-16T15:46:15;11.70;99.90
24250;DHT22;12379;49.820;8.648;2023-04-16T15:48:41;11.70;99.90
24250;DHT22;12379;49.820;8.648;2023-04-16T15:51:06;11.60;99.90
24250;DHT22;12379;49.820;8.648;2023-04-16T15:53:33;11.60;99.90
24250;DHT22;12379;49.820;8.648;2023-04-16T15:55:59;11.50;99.90